createdAt,value
2023-01-05T00:00:22.884Z,1.30
2023-01-05T00:02:25.675Z,0.87
2023-01-05T00:04:28.559Z,1.10
2023-01-05T00:06:31.749Z,1.07
2023-01-05T00:08:37.370Z,1.10
2023-01-05T00:10:51.568Z,0.97
2023-01-05T00:13:05.930Z,1.17
2023-01-05T00:15:25.604Z,1.10
2023-01-05T00:17:39.469Z,1.30
2023-01-05T00:19:54.548Z,1.30
2023-01-05T00:22:08.249Z,0.97
2023-01-05T00:24:10.979Z,1.47
2023-01-05T00:26:13.684Z,1.20
2023-01-05T00:28:16.736Z,0.97
2023-01-05T00:30:22.077Z,1.10
2023-01-05T00:32:24.759Z,1.10
2023-01-05T00:34:27.492Z,1.00
2023-01-05T00:36:30.770Z,0.93
2023-01-05T00:38:33.503Z,1.37
2023-01-05T00:40:36.281Z,1.10
2023-01-05T00:42:39.008Z,1.00
2023-01-05T00:44:41.709Z,1.10
2023-01-05T00:46:45.734Z,1.00
2023-01-05T00:48:48.481Z,1.30
2023-01-05T00:50:51.545Z,1.03
2023-01-05T00:52:54.338Z,1.00
2023-01-05T00:54:57.054Z,1.00
2023-01-05T00:57:00.011Z,1.03
2023-01-05T00:59:04.504Z,1.27
2023-01-05T01:01:10.454Z,1.10
2023-01-05T01:03:14.956Z,1.43
2023-01-05T01:05:17.741Z,1.10
2023-01-05T01:07:20.955Z,1.50
2023-01-05T01:09:23.691Z,1.27
2023-01-05T01:11:26.491Z,1.50
2023-01-05T01:13:29.445Z,1.20
2023-01-05T01:15:33.035Z,1.20
2023-01-05T01:17:35.903Z,1.20
2023-01-05T01:19:40.148Z,1.47
2023-01-05T01:21:42.963Z,1.10
2023-01-05T01:23:46.169Z,1.10
2023-01-05T01:25:48.930Z,1.23
2023-01-05T01:27:51.757Z,1.50
2023-01-05T01:29:54.462Z,1.47
2023-01-05T01:31:57.846Z,1.30
2023-01-05T01:34:00.760Z,1.30
2023-01-05T01:36:06.602Z,1.10
2023-01-05T01:38:09.380Z,1.20
2023-01-05T01:40:13.585Z,1.10
2023-01-05T01:42:16.883Z,1.10
2023-01-05T01:44:43.980Z,1.20
2023-01-05T01:46:46.955Z,1.50
2023-01-05T01:48:50.906Z,1.10
2023-01-05T01:50:54.604Z,1.50
2023-01-05T01:53:01.821Z,1.37
2023-01-05T01:55:05.689Z,1.10
2023-01-05T01:57:08.436Z,1.43
2023-01-05T01:59:11.144Z,1.10
2023-01-05T02:01:14.281Z,1.00
2023-01-05T02:03:17.252Z,1.40
2023-01-05T02:05:21.874Z,1.30
2023-01-05T02:07:34.241Z,1.10
2023-01-05T02:09:38.341Z,1.27
2023-01-05T02:11:44.942Z,0.83
2023-01-05T02:13:58.005Z,1.40
2023-01-05T02:16:04.230Z,1.10
2023-01-05T02:18:13.117Z,1.30
2023-01-05T02:20:33.485Z,1.20
2023-01-05T02:22:48.886Z,1.07
2023-01-05T02:25:03.391Z,1.10
2023-01-05T02:27:26.762Z,1.30
2023-01-05T02:29:43.084Z,0.90
2023-01-05T02:31:48.449Z,1.17
2023-01-05T02:34:03.016Z,1.43
2023-01-05T02:36:10.256Z,1.20
2023-01-05T02:38:15.615Z,0.97
2023-01-05T02:40:20.959Z,1.20
2023-01-05T02:42:24.928Z,1.40
2023-01-05T02:44:29.256Z,1.20
2023-01-05T02:46:32.078Z,1.13
2023-01-05T02:48:36.147Z,1.00
2023-01-05T02:50:42.425Z,1.20
2023-01-05T02:52:49.362Z,1.20
2023-01-05T02:54:53.716Z,1.00
2023-01-05T02:56:57.302Z,1.20
2023-01-05T02:59:02.861Z,1.40
2023-01-05T03:01:07.379Z,1.00
2023-01-05T03:03:12.984Z,1.13
2023-01-05T03:05:18.226Z,1.20
2023-01-05T03:07:25.212Z,1.20
2023-01-05T03:09:29.321Z,1.07
2023-01-05T03:11:46.297Z,1.20
2023-01-05T03:13:48.876Z,1.00
2023-01-05T03:15:58.738Z,0.90
2023-01-05T03:18:02.317Z,1.00
2023-01-05T03:20:05.615Z,1.30
2023-01-05T03:22:24.326Z,1.20
2023-01-05T03:24:37.985Z,1.30
2023-01-05T03:26:51.681Z,1.20
2023-01-05T03:29:07.568Z,1.07
2023-01-05T03:31:22.853Z,1.20
2023-01-05T03:33:41.990Z,1.20
2023-01-05T03:35:44.713Z,1.20
2023-01-05T03:37:52.187Z,0.93
2023-01-05T03:39:54.955Z,0.97
2023-01-05T03:41:57.699Z,1.10
2023-01-05T03:44:00.434Z,0.90
2023-01-05T03:46:04.231Z,1.13
2023-01-05T03:48:07.442Z,0.90
2023-01-05T03:50:10.666Z,1.23
2023-01-05T03:52:13.391Z,1.00
2023-01-05T03:54:17.782Z,1.00
2023-01-05T03:56:23.244Z,0.87
2023-01-05T03:58:26.028Z,1.00
2023-01-05T04:00:29.099Z,0.87
2023-01-05T04:02:32.408Z,1.20
2023-01-05T04:04:35.228Z,0.90
2023-01-05T04:06:37.950Z,1.03
2023-01-05T04:08:40.672Z,0.80
2023-01-05T04:10:45.090Z,1.00
2023-01-05T04:12:49.304Z,1.00
2023-01-05T04:14:52.059Z,1.00
2023-01-05T04:16:54.837Z,1.30
2023-01-05T04:18:57.889Z,1.30
2023-01-05T04:21:00.650Z,0.80
2023-01-05T04:23:03.381Z,0.90
2023-01-05T04:25:06.797Z,0.80
2023-01-05T04:27:11.182Z,0.90
2023-01-05T04:29:14.153Z,0.90
2023-01-05T04:31:16.955Z,1.00
2023-01-05T04:33:20.201Z,1.37
2023-01-05T04:35:22.941Z,0.90
2023-01-05T04:37:27.014Z,1.17
2023-01-05T04:39:29.772Z,0.83
2023-01-05T04:41:32.906Z,0.90
2023-01-05T04:43:36.958Z,1.00
2023-01-05T04:45:39.656Z,1.20
2023-01-05T04:47:42.366Z,1.07
2023-01-05T04:49:45.493Z,0.90
2023-01-05T04:51:48.541Z,0.80
2023-01-05T04:53:51.272Z,1.30
2023-01-05T04:55:54.002Z,0.97
2023-01-05T04:57:57.454Z,0.90
2023-01-05T05:00:01.523Z,1.37
2023-01-05T05:02:04.487Z,0.90
2023-01-05T05:04:07.350Z,1.10
2023-01-05T05:06:10.465Z,1.07
2023-01-05T05:08:13.599Z,1.00
2023-01-05T05:10:18.169Z,1.23
2023-01-05T05:12:21.023Z,0.97
2023-01-05T05:14:24.252Z,0.90
2023-01-05T05:16:28.314Z,0.90
2023-01-05T05:18:31.047Z,0.90
2023-01-05T05:20:33.812Z,1.23
2023-01-05T05:22:37.022Z,1.30
2023-01-05T05:24:39.730Z,1.10
2023-01-05T05:26:42.491Z,1.00
2023-01-05T05:28:45.196Z,1.40
2023-01-05T05:30:49.582Z,1.13
2023-01-05T05:32:53.737Z,1.10
2023-01-05T05:34:56.467Z,1.10
2023-01-05T05:36:59.193Z,0.90
2023-01-05T05:39:01.958Z,1.10
2023-01-05T05:41:04.876Z,0.97
2023-01-05T05:43:07.628Z,1.00
2023-01-05T05:45:11.599Z,1.00
2023-01-05T05:47:14.374Z,1.47
2023-01-05T05:49:18.385Z,1.00
2023-01-05T05:51:21.094Z,1.00
2023-01-05T05:53:24.206Z,1.50
2023-01-05T05:55:26.885Z,1.20
2023-01-05T05:57:29.640Z,1.20
2023-01-05T05:59:32.391Z,0.93
2023-01-05T06:01:35.712Z,0.80
2023-01-05T06:03:38.567Z,1.00
2023-01-05T06:05:42.684Z,1.20
2023-01-05T06:07:45.718Z,1.00
2023-01-05T06:09:48.871Z,1.13
2023-01-05T06:11:51.932Z,1.10
2023-01-05T06:13:54.746Z,1.20
2023-01-05T06:15:57.483Z,1.47
2023-01-05T06:18:00.850Z,0.97
2023-01-05T06:20:03.627Z,1.13
2023-01-05T06:22:07.786Z,1.43
2023-01-05T06:24:10.603Z,1.37
2023-01-05T06:26:13.817Z,0.83
2023-01-05T06:28:20.216Z,1.00
2023-01-05T06:30:23.365Z,0.97
2023-01-05T06:32:26.548Z,1.20
2023-01-05T06:34:29.296Z,1.50
2023-01-05T06:36:32.053Z,1.37
2023-01-05T06:38:37.085Z,0.80
2023-01-05T06:40:40.482Z,1.00
2023-01-05T06:42:43.426Z,1.00
2023-01-05T06:44:46.113Z,1.00
2023-01-05T06:46:49.274Z,1.13
2023-01-05T06:48:52.335Z,1.30
2023-01-05T06:50:55.080Z,1.00
2023-01-05T06:52:57.857Z,0.93
2023-01-05T06:55:02.210Z,1.00
2023-01-05T06:57:06.735Z,1.00
2023-01-05T06:59:09.425Z,1.23
2023-01-05T07:01:12.220Z,1.20
2023-01-05T07:03:15.292Z,1.20
2023-01-05T07:05:18.228Z,1.10
2023-01-05T07:07:20.971Z,0.90
2023-01-05T07:09:23.675Z,1.17
2023-01-05T07:11:28.179Z,1.13
2023-01-05T07:13:30.897Z,1.00
2023-01-05T07:15:33.653Z,1.13
2023-01-05T07:17:36.884Z,0.97
2023-01-05T07:19:40.031Z,1.40
2023-01-05T07:21:42.761Z,0.90
2023-01-05T07:23:45.464Z,1.30
2023-01-05T07:25:48.195Z,1.10
2023-01-05T07:27:53.205Z,1.10
2023-01-05T07:29:55.968Z,1.20
2023-01-05T07:31:59.035Z,1.00
2023-01-05T07:34:01.788Z,1.13
2023-01-05T07:36:05.456Z,1.47
2023-01-05T07:38:08.597Z,0.90
2023-01-05T07:40:12.124Z,1.40
2023-01-05T07:42:14.882Z,1.07
2023-01-05T07:44:19.352Z,1.53
2023-01-05T07:46:22.114Z,0.90
2023-01-05T07:48:24.937Z,1.07
2023-01-05T07:50:27.691Z,1.27
2023-01-05T07:52:33.084Z,1.07
2023-01-05T07:54:35.938Z,1.37
2023-01-05T07:56:38.967Z,1.43
2023-01-05T07:58:42.812Z,1.07
2023-01-05T08:00:47.317Z,1.00
2023-01-05T08:02:50.111Z,1.03
2023-01-05T08:04:52.869Z,1.20
2023-01-05T08:06:56.124Z,1.27
2023-01-05T08:09:19.172Z,1.17
2023-01-05T08:11:22.147Z,0.90
2023-01-05T08:13:35.863Z,1.30
2023-01-05T08:15:38.688Z,1.17
2023-01-05T08:17:43.200Z,1.30
2023-01-05T08:19:45.967Z,1.00
2023-01-05T08:21:48.791Z,0.90
2023-01-05T08:23:53.190Z,1.37
2023-01-05T08:25:56.396Z,1.10
2023-01-05T08:28:00.033Z,1.10
2023-01-05T08:30:02.781Z,1.20
2023-01-05T08:32:05.902Z,1.20
2023-01-05T08:34:10.315Z,0.90
2023-01-05T08:36:14.387Z,1.07
2023-01-05T08:38:17.121Z,0.97
2023-01-05T08:40:20.411Z,1.30
2023-01-05T08:42:23.238Z,1.20
2023-01-05T08:44:26.806Z,1.03
2023-01-05T08:46:32.589Z,1.27
2023-01-05T08:48:35.570Z,1.17
2023-01-05T08:50:39.621Z,1.03
2023-01-05T08:52:42.363Z,0.93
2023-01-05T08:54:45.391Z,1.10
2023-01-05T08:56:50.611Z,0.97
2023-01-05T08:58:55.756Z,1.50
2023-01-05T09:00:58.512Z,1.30
2023-01-05T09:03:02.213Z,1.00
2023-01-05T09:05:05.266Z,1.20
2023-01-05T09:07:09.265Z,1.47
2023-01-05T09:09:12.092Z,1.10
2023-01-05T09:11:15.749Z,1.13
2023-01-05T09:13:20.235Z,1.13
2023-01-05T09:15:26.794Z,1.63
2023-01-05T09:17:30.118Z,1.20
2023-01-05T09:19:32.827Z,1.90
2023-01-05T09:21:35.783Z,1.30
2023-01-05T09:23:40.127Z,2.10
2023-01-05T09:25:43.210Z,1.40
2023-01-05T09:27:46.513Z,1.53
2023-01-05T09:29:49.500Z,1.57
2023-01-05T09:31:52.403Z,1.10
2023-01-05T09:33:55.656Z,1.20
2023-01-05T09:35:58.435Z,1.40
2023-01-05T09:38:01.203Z,1.63
2023-01-05T09:40:05.719Z,1.53
2023-01-05T09:42:09.065Z,1.37
2023-01-05T09:44:15.820Z,1.77
2023-01-05T09:46:21.001Z,1.60
2023-01-05T09:48:23.787Z,1.50
2023-01-05T09:50:30.744Z,1.20
2023-01-05T09:52:37.993Z,1.80
2023-01-05T09:54:40.970Z,1.43
2023-01-05T09:59:09.452Z,2.47
2023-01-05T10:01:14.377Z,1.73
2023-01-05T10:03:44.728Z,2.13
2023-01-05T10:05:42.833Z,1.60
2023-01-05T10:07:47.110Z,1.63
2023-01-05T10:09:51.701Z,1.90
2023-01-05T10:12:09.710Z,1.77
2023-01-05T10:14:15.423Z,2.23
2023-01-05T10:16:19.180Z,1.77
2023-01-05T10:18:26.802Z,1.93
2023-01-05T10:20:39.891Z,2.07
2023-01-05T10:22:45.675Z,2.00
2023-01-05T10:24:50.878Z,2.00
2023-01-05T10:27:27.160Z,2.07
2023-01-05T10:29:21.393Z,1.70
2023-01-05T10:31:25.249Z,2.10
2023-01-05T10:33:51.659Z,1.73
2023-01-05T10:36:04.092Z,1.70
2023-01-05T10:38:15.378Z,2.13
2023-01-05T10:40:25.547Z,1.67
2023-01-05T10:42:37.737Z,2.00
2023-01-05T10:44:48.614Z,1.60
2023-01-05T10:46:53.044Z,2.00
2023-01-05T10:48:55.960Z,1.70
2023-01-05T10:50:58.894Z,2.17
2023-01-05T10:53:02.256Z,1.60
2023-01-05T10:55:12.994Z,1.70
2023-01-05T10:57:36.656Z,1.73
2023-01-05T10:59:55.046Z,1.70
2023-01-05T11:01:57.844Z,1.57
2023-01-05T11:04:34.910Z,1.40
2023-01-05T11:06:28.569Z,1.60
2023-01-05T11:08:31.512Z,1.70
2023-01-05T11:10:35.655Z,2.20
2023-01-05T11:12:40.138Z,2.20
2023-01-05T11:14:46.605Z,2.00
2023-01-05T11:16:56.430Z,2.50
2023-01-05T11:19:02.375Z,2.60
2023-01-05T11:21:11.858Z,2.33
2023-01-05T11:23:29.380Z,1.70
2023-01-05T11:25:36.609Z,2.10
2023-01-05T11:28:09.124Z,2.10
2023-01-05T11:30:21.794Z,2.00
2023-01-05T11:32:25.188Z,1.80
2023-01-05T11:34:36.022Z,2.03
2023-01-05T11:36:38.810Z,2.10
2023-01-05T11:38:41.538Z,2.23
2023-01-05T11:40:44.433Z,2.20
2023-01-05T11:42:49.964Z,2.07
2023-01-05T11:44:53.634Z,2.40
2023-01-05T11:46:59.950Z,2.00
2023-01-05T11:49:02.737Z,2.50
2023-01-05T11:51:06.181Z,2.47
2023-01-05T11:53:21.396Z,2.77
2023-01-05T11:55:30.538Z,2.70
2023-01-05T11:57:33.441Z,2.53
2023-01-05T11:59:39.606Z,3.00
2023-01-05T12:01:55.726Z,2.80
2023-01-05T12:04:01.916Z,3.07
2023-01-05T12:06:07.093Z,3.40
2023-01-05T12:08:11.987Z,3.17
2023-01-05T12:10:26.416Z,3.20
2023-01-05T12:12:37.339Z,3.27
2023-01-05T12:14:49.257Z,3.30
2023-01-05T12:16:54.870Z,2.80
2023-01-05T12:19:07.249Z,2.83
2023-01-05T12:21:12.848Z,3.07
2023-01-05T12:23:24.407Z,2.93
2023-01-05T12:25:34.294Z,3.53
2023-01-05T12:27:47.529Z,3.50
2023-01-05T12:33:44.453Z,3.17
2023-01-05T12:35:05.501Z,3.30
2023-01-05T12:37:19.222Z,3.80
2023-01-05T12:39:35.265Z,3.40
2023-01-05T12:41:44.765Z,3.00
2023-01-05T12:43:52.444Z,3.60
2023-01-05T12:46:04.817Z,3.47
2023-01-05T12:48:09.042Z,3.77
2023-01-05T12:50:24.660Z,3.50
2023-01-05T12:52:32.877Z,3.10
2023-01-05T12:54:40.397Z,3.23
2023-01-05T12:56:45.443Z,3.17
2023-01-05T12:58:54.118Z,3.40
2023-01-05T13:00:57.821Z,3.30
2023-01-05T13:03:03.484Z,3.10
2023-01-05T13:05:09.907Z,3.30
2023-01-05T13:07:21.555Z,3.00
2023-01-05T13:09:25.894Z,3.17
2023-01-05T13:11:30.480Z,3.83
2023-01-05T13:13:36.098Z,3.47
2023-01-05T13:15:42.031Z,3.80
2023-01-05T13:17:47.241Z,3.67
2023-01-05T13:19:52.634Z,4.17
2023-01-05T13:21:55.716Z,3.20
2023-01-05T13:23:59.812Z,4.20
2023-01-05T13:26:03.856Z,3.80
2023-01-05T13:30:13.949Z,3.67
2023-01-05T13:32:27.023Z,3.10
2023-01-05T13:34:47.107Z,3.03
2023-01-05T13:37:07.264Z,3.43
2023-01-05T13:39:25.592Z,3.00
2023-01-05T13:41:35.984Z,2.93
2023-01-05T13:43:48.291Z,3.20
2023-01-05T13:46:03.620Z,3.10
2023-01-05T13:50:27.657Z,3.40
2023-01-05T13:52:38.071Z,2.77
2023-01-05T13:54:48.945Z,3.07
2023-01-05T13:56:57.562Z,3.10
2023-01-05T13:59:01.295Z,2.70
2023-01-05T14:01:04.685Z,2.80
2023-01-05T14:03:22.009Z,2.50
2023-01-05T14:05:26.161Z,2.83
2023-01-05T14:07:29.244Z,2.87
2023-01-05T14:09:35.205Z,2.60
2023-01-05T14:11:37.983Z,2.20
2023-01-05T14:13:43.937Z,2.00
2023-01-05T14:15:47.421Z,2.50
2023-01-05T14:17:55.571Z,2.50
2023-01-05T14:19:58.295Z,2.60
2023-01-05T14:22:03.036Z,2.10
2023-01-05T14:24:25.001Z,2.27
2023-01-05T14:26:51.576Z,2.17
2023-01-05T14:28:55.804Z,2.20
2023-01-05T14:31:28.685Z,2.20
2023-01-05T14:33:31.864Z,2.40
2023-01-05T14:35:37.404Z,2.33
2023-01-05T14:37:42.092Z,1.70
2023-01-05T14:39:46.074Z,1.87
2023-01-05T14:41:59.223Z,2.00
2023-01-05T14:44:05.585Z,1.90
2023-01-05T14:46:10.711Z,1.97
2023-01-05T14:48:29.448Z,1.93
2023-01-05T14:50:35.580Z,2.13
2023-01-05T14:52:54.539Z,1.97
2023-01-05T14:55:26.923Z,2.13
2023-01-05T14:57:38.126Z,1.73
2023-01-05T14:59:42.525Z,1.80
2023-01-05T15:01:49.137Z,2.00
2023-01-05T15:03:52.726Z,2.03
2023-01-05T15:05:59.220Z,1.83
2023-01-05T15:08:13.226Z,2.10
2023-01-05T15:10:28.863Z,1.90
2023-01-05T15:12:40.825Z,2.37
2023-01-05T15:14:56.168Z,2.10
2023-01-05T15:17:16.841Z,1.77
2023-01-05T15:19:27.223Z,1.80
2023-01-05T15:21:44.182Z,1.73
2023-01-05T15:23:58.035Z,1.90
2023-01-05T15:26:09.393Z,1.50
2023-01-05T15:28:28.917Z,1.90
2023-01-05T15:30:47.627Z,1.90
2023-01-05T15:32:51.506Z,2.30
2023-01-05T15:34:55.841Z,1.83
2023-01-05T15:37:04.028Z,2.70
2023-01-05T15:39:24.755Z,1.80
2023-01-05T15:41:28.023Z,2.50
2023-01-05T15:43:30.797Z,2.00
2023-01-05T15:45:36.098Z,2.07
2023-01-05T15:47:40.363Z,2.03
2023-01-05T15:49:46.888Z,2.23
2023-01-05T15:51:51.202Z,2.40
2023-01-05T15:53:55.051Z,2.63
2023-01-05T15:55:57.907Z,2.13
2023-01-05T15:58:04.727Z,2.30
2023-01-05T16:00:17.433Z,2.40
2023-01-05T16:02:24.032Z,2.10
2023-01-05T16:04:28.468Z,1.90
2023-01-05T16:06:42.951Z,2.20
2023-01-05T16:08:47.072Z,2.10
2023-01-05T16:10:51.135Z,1.97
2023-01-05T16:12:57.374Z,1.80
2023-01-05T16:15:05.020Z,2.17
2023-01-05T16:17:11.633Z,1.90
2023-01-05T16:19:25.813Z,1.90
2023-01-05T16:21:33.313Z,1.93
2023-01-05T16:23:37.797Z,2.50
2023-01-05T16:25:41.879Z,2.40
2023-01-05T16:27:48.018Z,1.93
2023-01-05T16:29:50.783Z,2.43
2023-01-05T16:31:54.056Z,2.00
2023-01-05T16:34:05.449Z,2.00
2023-01-05T16:36:12.072Z,2.20
2023-01-05T16:38:24.833Z,1.80
2023-01-05T16:40:27.633Z,2.17
2023-01-05T16:42:40.996Z,1.60
2023-01-05T16:44:43.845Z,1.90
2023-01-05T16:46:49.472Z,1.97
2023-01-05T16:48:53.324Z,2.13
2023-01-05T16:50:57.203Z,2.00
2023-01-05T16:53:04.056Z,1.80
2023-01-05T16:55:29.307Z,1.60
2023-01-05T16:57:34.884Z,2.07
2023-01-05T16:59:45.351Z,2.07
2023-01-05T17:01:48.220Z,2.03
2023-01-05T17:03:51.037Z,1.80
2023-01-05T17:05:54.058Z,1.80
2023-01-05T17:08:03.355Z,1.60
2023-01-05T17:10:07.447Z,2.20
2023-01-05T17:12:11.693Z,1.30
2023-01-05T17:14:14.512Z,1.97
2023-01-05T17:16:17.730Z,1.50
2023-01-05T17:20:27.937Z,2.20
2023-01-05T17:22:30.982Z,2.00
2023-01-05T17:24:34.300Z,2.23
2023-01-05T17:26:38.348Z,1.90
2023-01-05T17:28:43.213Z,2.00
2023-01-05T17:30:47.151Z,1.70
2023-01-05T17:32:50.955Z,2.07
2023-01-05T17:34:56.404Z,2.20
2023-01-05T17:37:02.951Z,1.87
2023-01-05T17:39:06.933Z,2.03
2023-01-05T17:41:10.504Z,2.03
2023-01-05T17:43:13.385Z,1.93
2023-01-05T17:45:18.970Z,1.80
2023-01-05T17:47:23.133Z,2.60
2023-01-05T17:51:31.357Z,1.90
2023-01-05T17:53:34.435Z,2.20
2023-01-05T17:55:37.137Z,2.10
2023-01-05T17:57:40.143Z,2.37
2023-01-05T17:59:46.355Z,2.20
2023-01-05T18:01:51.359Z,2.20
2023-01-05T18:03:54.165Z,2.37
2023-01-05T18:05:56.908Z,2.10
2023-01-05T18:08:02.468Z,2.13
2023-01-05T18:12:21.828Z,2.23
2023-01-05T18:14:35.184Z,2.03
2023-01-05T18:16:38.718Z,2.30
2023-01-05T18:18:50.369Z,2.43
2023-01-05T18:20:53.441Z,1.97
2023-01-05T18:22:57.226Z,1.93
2023-01-05T18:25:00.255Z,1.97
2023-01-05T18:27:06.853Z,2.00
2023-01-05T18:29:13.395Z,1.90
2023-01-05T18:31:16.985Z,2.07
2023-01-05T18:33:22.459Z,2.43
2023-01-05T18:35:26.793Z,2.10
2023-01-05T18:37:31.951Z,2.27
2023-01-05T18:39:37.367Z,1.93
2023-01-05T18:41:43.186Z,2.40
2023-01-05T18:43:46.062Z,2.00
2023-01-05T18:45:55.386Z,2.10
2023-01-05T18:48:03.038Z,2.10
2023-01-05T18:50:08.368Z,1.73
2023-01-05T18:52:13.672Z,1.97
2023-01-05T18:54:17.317Z,2.07
2023-01-05T18:56:20.120Z,1.90
2023-01-05T18:58:22.960Z,1.80
2023-01-05T19:00:33.942Z,2.07
2023-01-05T19:02:39.165Z,2.37
2023-01-05T19:04:45.357Z,2.00
2023-01-05T19:06:48.204Z,1.90
2023-01-05T19:08:54.031Z,1.80
2023-01-05T19:10:57.724Z,1.87
2023-01-05T19:13:00.701Z,2.27
2023-01-05T19:15:06.037Z,2.00
2023-01-05T19:17:15.142Z,2.10
2023-01-05T19:19:20.025Z,2.20
2023-01-05T19:21:25.932Z,2.00
2023-01-05T19:23:28.607Z,2.00
2023-01-05T19:25:32.932Z,1.80
2023-01-05T19:27:38.557Z,2.30
2023-01-05T19:29:42.070Z,2.00
2023-01-05T19:31:45.096Z,2.10
2023-01-05T19:33:48.259Z,2.10
2023-01-05T19:35:51.954Z,2.07
2023-01-05T19:37:54.898Z,2.00
2023-01-05T19:39:57.749Z,2.07
2023-01-05T19:42:06.256Z,1.83
2023-01-05T19:44:14.050Z,2.20
2023-01-05T19:46:24.259Z,2.17
2023-01-05T19:48:31.238Z,2.47
2023-01-05T19:50:36.934Z,2.20
2023-01-05T19:52:40.887Z,1.60
2023-01-05T19:54:46.057Z,2.10
2023-01-05T19:56:50.997Z,1.70
2023-01-05T19:58:56.662Z,1.90
2023-01-05T20:01:05.417Z,1.70
2023-01-05T20:03:11.448Z,1.87
2023-01-05T20:05:15.456Z,1.80
2023-01-05T20:07:18.507Z,2.00
2023-01-05T20:09:22.111Z,2.13
2023-01-05T20:11:42.782Z,2.10
2023-01-05T20:13:50.148Z,1.70
2023-01-05T20:15:54.530Z,1.87
2023-01-05T20:17:57.324Z,1.83
2023-01-05T20:20:00.785Z,1.87
2023-01-05T20:22:05.936Z,1.80
2023-01-05T20:24:12.588Z,1.97
2023-01-05T20:26:20.251Z,1.90
2023-01-05T20:28:22.984Z,2.23
2023-01-05T20:30:26.054Z,1.80
2023-01-05T20:32:30.030Z,2.07
2023-01-05T20:34:36.279Z,2.03
2023-01-05T20:36:41.186Z,2.13
2023-01-05T20:38:46.911Z,2.27
2023-01-05T20:40:50.484Z,2.10
2023-01-05T20:42:53.224Z,1.97
2023-01-05T20:44:59.077Z,2.00
2023-01-05T20:47:03.090Z,2.17
2023-01-05T20:49:07.389Z,2.00
2023-01-05T20:51:13.128Z,2.27
2023-01-05T20:53:15.913Z,1.70
2023-01-05T20:55:19.416Z,1.93
2023-01-05T20:57:22.170Z,1.80
2023-01-05T20:59:27.197Z,2.03
2023-01-05T21:01:30.002Z,1.80
2023-01-05T21:03:38.804Z,1.67
2023-01-05T21:05:42.852Z,2.83
2023-01-05T21:07:46.566Z,2.03
2023-01-05T21:09:50.286Z,1.80
2023-01-05T21:11:53.570Z,1.83
2023-01-05T21:13:56.909Z,1.93
2023-01-05T21:16:01.287Z,1.57
2023-01-05T21:18:04.250Z,1.90
2023-01-05T21:20:09.830Z,1.83
2023-01-05T21:22:14.700Z,1.90
2023-01-05T21:24:17.488Z,1.83
2023-01-05T21:26:20.392Z,1.93
2023-01-05T21:28:23.743Z,2.00
2023-01-05T21:30:26.775Z,2.00
2023-01-05T21:32:32.318Z,2.07
2023-01-05T21:34:36.276Z,1.87
2023-01-05T21:36:47.069Z,1.80
2023-01-05T21:39:01.602Z,1.97
2023-01-05T21:41:08.906Z,1.97
2023-01-05T21:43:11.399Z,2.13
2023-01-05T21:45:14.360Z,1.57
2023-01-05T21:47:17.208Z,2.00
2023-01-05T21:49:20.257Z,1.93
2023-01-05T21:51:34.467Z,1.70
2023-01-05T21:53:48.342Z,2.03
2023-01-05T21:56:04.944Z,1.90
2023-01-05T21:58:07.848Z,2.10
2023-01-05T22:00:13.781Z,1.70
2023-01-05T22:02:16.648Z,2.20
2023-01-05T22:04:22.444Z,1.70
2023-01-05T22:06:25.274Z,1.77
2023-01-05T22:08:28.369Z,2.20
2023-01-05T22:10:31.128Z,2.20
2023-01-05T22:12:35.648Z,2.10
2023-01-05T22:14:40.389Z,1.87
2023-01-05T22:16:43.623Z,1.40
2023-01-05T22:18:46.427Z,2.00
2023-01-05T22:20:50.976Z,1.70
2023-01-05T22:22:53.690Z,2.13
2023-01-05T22:24:57.108Z,1.60
2023-01-05T22:27:00.335Z,2.00
2023-01-05T22:29:04.377Z,1.60
2023-01-05T22:31:08.362Z,1.63
2023-01-05T22:33:13.098Z,1.70
2023-01-05T22:35:15.901Z,1.60
2023-01-05T22:37:18.642Z,1.77
2023-01-05T22:39:21.753Z,1.60
2023-01-05T22:41:27.398Z,1.60
2023-01-05T22:43:30.207Z,1.60
2023-01-05T22:45:35.679Z,1.50
2023-01-05T22:47:39.400Z,1.97
2023-01-05T22:49:42.943Z,1.87
2023-01-05T22:51:46.403Z,1.47
2023-01-05T22:53:51.785Z,2.23
2023-01-05T22:55:55.871Z,1.67
2023-01-05T22:58:00.073Z,1.40
2023-01-05T23:00:03.526Z,1.57
2023-01-05T23:02:07.942Z,1.73
2023-01-05T23:04:10.795Z,1.80
2023-01-05T23:06:13.926Z,1.50
2023-01-05T23:08:17.096Z,1.70
2023-01-05T23:10:19.767Z,1.53
2023-01-05T23:12:24.772Z,1.57
2023-01-05T23:14:28.119Z,1.70
2023-01-05T23:16:31.308Z,1.40
2023-01-05T23:18:37.511Z,1.73
2023-01-05T23:20:42.910Z,2.10
2023-01-05T23:22:47.603Z,1.63
2023-01-05T23:24:51.342Z,1.70
2023-01-05T23:26:55.065Z,1.50
2023-01-05T23:28:58.784Z,1.80
2023-01-05T23:31:02.967Z,1.50
2023-01-05T23:33:06.633Z,1.67
2023-01-05T23:35:12.048Z,1.77
2023-01-05T23:37:15.636Z,1.43
2023-01-05T23:39:18.759Z,1.60
2023-01-05T23:41:22.145Z,1.70
2023-01-05T23:43:26.922Z,1.60
2023-01-05T23:45:35.093Z,2.00
2023-01-05T23:47:38.199Z,1.10
2023-01-05T23:49:41.713Z,1.40
2023-01-05T23:51:47.967Z,1.63
2023-01-05T23:53:51.767Z,1.30
2023-01-05T23:55:54.778Z,1.40
2023-01-05T23:57:57.529Z,1.50
